createdAt,value
2023-03-12T00:06:00.022Z,38.5
2023-03-12T00:08:32.289Z,38.6
2023-03-12T00:18:41.364Z,38.5
2023-03-12T00:21:12.654Z,38.6
2023-03-12T00:31:21.736Z,38.5
2023-03-12T00:33:53.032Z,38.5
2023-03-12T00:44:01.130Z,38.4
2023-03-12T00:46:32.418Z,38.5
2023-03-12T00:59:13.779Z,38.5
2023-03-12T01:09:21.875Z,38.5
2023-03-12T01:11:53.161Z,38.4
2023-03-12T01:22:01.275Z,38.3
2023-03-12T01:24:33.553Z,38.4
2023-03-12T01:34:41.641Z,38.4
2023-03-12T01:37:12.943Z,38.3
2023-03-12T01:47:21.030Z,38.4
2023-03-12T01:49:53.313Z,38.4
2023-03-12T02:00:01.398Z,38.3
2023-03-12T02:02:33.681Z,38.3
2023-03-12T02:12:42.774Z,38.3
2023-03-12T02:15:14.064Z,38.3
2023-03-12T02:27:54.444Z,38.3
2023-03-12T02:38:02.543Z,38.3
2023-03-12T02:40:33.847Z,38.3
2023-03-12T02:53:15.185Z,38.3
2023-03-12T03:03:23.290Z,38.3
2023-03-12T03:05:54.593Z,38.4
2023-03-12T03:16:03.666Z,38.3
2023-03-12T03:18:35.928Z,38.3
2023-03-12T03:28:44.038Z,38.3
2023-03-12T03:31:16.313Z,38.3
2023-03-12T03:41:24.412Z,38.3
2023-03-12T03:43:55.691Z,38.3
2023-03-12T03:56:36.070Z,38.3
2023-03-12T04:06:44.185Z,38.3
2023-03-12T04:09:16.450Z,38.3
2023-03-12T04:19:24.551Z,38.3
2023-03-12T04:21:56.814Z,38.3
2023-03-12T04:32:04.917Z,38.2
2023-03-12T04:34:36.210Z,38.3
2023-03-12T04:44:45.300Z,38.3
2023-03-12T04:47:16.588Z,38.3
2023-03-12T04:57:25.654Z,38.2
2023-03-12T04:59:56.956Z,38.2
2023-03-12T05:10:06.032Z,38.3
2023-03-12T05:12:37.334Z,38.2
2023-03-12T05:22:45.427Z,38.3
2023-03-12T05:25:17.692Z,38.3
2023-03-12T05:35:25.793Z,38.2
2023-03-12T05:37:57.086Z,38.3
2023-03-12T05:48:06.180Z,38.2
2023-03-12T05:50:37.457Z,38.2
2023-03-12T06:00:46.544Z,38.3
2023-03-12T06:03:17.827Z,38.3
2023-03-12T06:13:26.918Z,38.2
2023-03-12T06:15:58.214Z,38.2
2023-03-12T06:26:06.305Z,38.2
2023-03-12T06:28:37.602Z,38.2
2023-03-12T06:38:46.683Z,38.2
2023-03-12T06:41:17.981Z,38.1
2023-03-12T06:51:26.075Z,38.2
2023-03-12T06:53:57.359Z,38.1
2023-03-12T07:04:06.456Z,38.1
2023-03-12T07:06:37.747Z,38.1
2023-03-12T07:09:09.021Z,38.1
2023-03-12T07:16:45.848Z,38
2023-03-12T07:19:18.105Z,38.1
2023-03-12T07:29:27.194Z,38.1
2023-03-12T07:31:58.477Z,38
2023-03-12T07:34:29.780Z,38.1
2023-03-12T07:42:05.603Z,38
2023-03-12T07:44:37.883Z,38
2023-03-12T07:47:10.141Z,38
2023-03-12T07:49:42.412Z,38
2023-03-12T07:54:46.947Z,38
2023-03-12T07:57:18.250Z,38
2023-03-12T07:59:50.522Z,38
2023-03-12T08:07:27.336Z,37.9
2023-03-12T08:09:58.616Z,38
2023-03-12T08:12:30.886Z,37.9
2023-03-12T08:15:03.149Z,37.9
2023-03-12T08:20:06.713Z,38
2023-03-12T08:22:38.982Z,37.9
2023-03-12T08:25:10.275Z,37.9
2023-03-12T08:32:47.093Z,37.9
2023-03-12T08:35:18.379Z,37.8
2023-03-12T08:37:49.685Z,37.8
2023-03-12T08:45:25.506Z,37.7
2023-03-12T08:47:56.796Z,37.8
2023-03-12T08:58:05.878Z,37.8
2023-03-12T09:00:37.177Z,37.8
2023-03-12T09:03:08.463Z,37.8
2023-03-12T09:10:45.270Z,37.7
2023-03-12T09:13:17.544Z,37.8
2023-03-12T09:23:26.631Z,37.8
2023-03-12T09:25:57.904Z,37.8
2023-03-12T09:36:06.994Z,37.8
2023-03-12T09:41:11.535Z,37.8
2023-03-12T09:48:47.357Z,37.8
2023-03-12T09:51:19.630Z,37.8
2023-03-12T10:01:28.708Z,37.7
2023-03-12T10:04:00.986Z,37.8
2023-03-12T10:26:51.411Z,37.7
2023-03-12T10:43:21.851Z,37.7
2023-03-12T10:47:09.494Z,37.6
2023-03-12T10:50:57.156Z,37.6
2023-03-12T11:02:21.928Z,37.6
2023-03-12T11:04:53.397Z,37.6
2023-03-12T11:06:08.652Z,37.5
2023-03-12T11:09:57.222Z,37.5
2023-03-12T11:11:13.411Z,37.5
2023-03-12T11:13:45.794Z,37.6
2023-03-12T11:16:18.187Z,37.6
2023-03-12T11:18:50.557Z,37.6
2023-03-12T11:20:06.751Z,37.6
2023-03-12T11:21:23.007Z,37.6
2023-03-12T11:22:38.191Z,37.6
2023-03-12T11:25:10.576Z,37.6
2023-03-12T11:26:26.762Z,37.6
2023-03-12T11:28:59.145Z,37.6
2023-03-12T11:30:15.338Z,37.6
2023-03-12T11:31:31.531Z,37.6
2023-03-12T11:32:47.722Z,37.6
2023-03-12T11:34:03.921Z,37.6
2023-03-12T11:35:20.112Z,37.6
2023-03-12T11:39:08.673Z,37.6
2023-03-12T11:40:23.931Z,37.6
2023-03-12T11:44:12.497Z,37.6
2023-03-12T11:45:28.687Z,37.6
2023-03-12T11:48:01.071Z,37.6
2023-03-12T11:49:17.269Z,37.6
2023-03-12T11:50:33.455Z,37.6
2023-03-12T11:51:49.641Z,37.6
2023-03-12T11:54:22.038Z,37.6
2023-03-12T11:59:26.792Z,37.6
2023-03-12T12:00:42.037Z,37.6
2023-03-12T12:01:58.235Z,37.5
2023-03-12T12:03:14.419Z,37.5
2023-03-12T12:05:46.793Z,37.5
2023-03-12T12:07:02.997Z,37.5
2023-03-12T12:08:19.190Z,37.5
2023-03-12T12:09:35.371Z,37.5
2023-03-12T12:10:51.569Z,37.5
2023-03-12T12:12:07.750Z,37.5
2023-03-12T12:13:23.962Z,37.5
2023-03-12T12:15:56.327Z,37.6
2023-03-12T12:17:11.583Z,37.5
2023-03-12T12:18:27.762Z,37.4
2023-03-12T12:19:43.963Z,37.5
2023-03-12T12:22:16.332Z,37.5
2023-03-12T12:24:48.718Z,37.5
2023-03-12T12:26:04.924Z,37.5
2023-03-12T12:28:37.292Z,37.5
2023-03-12T12:29:53.493Z,37.5
2023-03-12T12:31:09.676Z,37.5
2023-03-12T12:33:42.070Z,37.5
2023-03-12T12:37:29.678Z,37.5
2023-03-12T12:38:45.877Z,37.5
2023-03-12T12:40:02.075Z,37.5
2023-03-12T12:41:18.260Z,37.4
2023-03-12T12:42:34.455Z,37.4
2023-03-12T12:45:06.843Z,37.4
2023-03-12T12:48:55.414Z,37.4
2023-03-12T12:54:00.174Z,37.4
2023-03-12T12:56:32.690Z,37.4
2023-03-12T12:59:05.063Z,37.4
2023-03-12T13:00:21.257Z,37.4
2023-03-12T13:02:53.640Z,37.4
2023-03-12T13:04:09.844Z,37.4
2023-03-12T13:05:26.018Z,37.5
2023-03-12T13:07:58.413Z,37.4
2023-03-12T13:15:35.557Z,37.4
2023-03-12T13:19:23.181Z,37.4
2023-03-12T13:21:55.554Z,37.4
2023-03-12T13:23:11.758Z,37.5
2023-03-12T13:27:00.323Z,37.5
2023-03-12T13:28:16.521Z,37.5
2023-03-12T13:33:21.294Z,37.5
2023-03-12T13:34:36.531Z,37.5
2023-03-12T13:35:52.729Z,37.6
2023-03-12T13:38:25.098Z,37.6
2023-03-12T13:39:41.291Z,37.6
2023-03-12T13:40:57.491Z,37.6
2023-03-12T13:42:13.686Z,37.6
2023-03-12T13:43:29.870Z,37.6
2023-03-12T13:44:46.060Z,37.5
2023-03-12T13:47:18.446Z,37.6
2023-03-12T13:48:34.647Z,37.6
2023-03-12T13:49:50.819Z,37.6
2023-03-12T13:51:06.065Z,37.6
2023-03-12T13:53:38.447Z,37.6
2023-03-12T13:54:54.647Z,37.5
2023-03-12T13:56:10.838Z,37.6
2023-03-12T13:57:27.000Z,37.6
2023-03-12T13:59:59.405Z,37.5
2023-03-12T14:01:15.609Z,37.6
2023-03-12T14:02:31.799Z,37.5
2023-03-12T14:05:04.183Z,37.5
2023-03-12T14:07:36.553Z,37.6
2023-03-12T14:10:07.986Z,37.6
2023-03-12T14:11:24.192Z,37.6
2023-03-12T14:12:40.375Z,37.6
2023-03-12T14:13:56.558Z,37.5
2023-03-12T14:15:12.749Z,37.5
2023-03-12T14:16:28.958Z,37.5
2023-03-12T14:20:17.524Z,37.6
2023-03-12T14:22:49.907Z,37.6
2023-03-12T14:24:06.106Z,37.6
2023-03-12T14:25:21.331Z,37.6
2023-03-12T14:26:37.536Z,37.6
2023-03-12T14:30:26.115Z,37.6
2023-03-12T14:31:42.363Z,37.6
2023-03-12T14:34:14.691Z,37.6
2023-03-12T14:35:30.866Z,37.6
2023-03-12T14:36:47.071Z,37.7
2023-03-12T14:38:03.253Z,37.6
2023-03-12T14:39:19.455Z,37.6
2023-03-12T14:41:51.837Z,37.6
2023-03-12T14:43:07.071Z,37.6
2023-03-12T14:44:23.272Z,37.5
2023-03-12T14:46:55.641Z,37.5
2023-03-12T14:48:11.844Z,37.5
2023-03-12T14:49:28.031Z,37.5
2023-03-12T14:50:44.214Z,37.5
2023-03-12T14:53:16.602Z,37.6
2023-03-12T14:54:32.794Z,37.5
2023-03-12T14:55:48.984Z,37.5
2023-03-12T14:57:05.175Z,37.5
2023-03-12T14:58:21.359Z,37.5
2023-03-12T14:59:36.619Z,37.6
2023-03-12T15:02:08.984Z,37.6
2023-03-12T15:03:25.183Z,37.6
2023-03-12T15:04:41.383Z,37.6
2023-03-12T15:07:13.756Z,37.6
2023-03-12T15:09:46.209Z,37.6
2023-03-12T15:12:18.518Z,37.7
2023-03-12T15:13:34.709Z,37.7
2023-03-12T15:16:07.100Z,37.7
2023-03-12T15:17:22.338Z,37.6
2023-03-12T15:18:38.535Z,37.6
2023-03-12T15:22:27.099Z,37.6
2023-03-12T15:24:58.567Z,37.7
2023-03-12T15:27:30.000Z,37.6
2023-03-12T15:28:45.262Z,37.7
2023-03-12T15:30:01.464Z,37.7
2023-03-12T15:31:17.657Z,37.6
2023-03-12T15:32:33.834Z,37.6
2023-03-12T15:33:50.043Z,37.6
2023-03-12T15:35:06.234Z,37.6
2023-03-12T15:36:22.417Z,37.7
2023-03-12T15:38:54.806Z,37.6
2023-03-12T15:40:10.996Z,37.6
2023-03-12T15:45:15.766Z,37.7
2023-03-12T15:50:19.565Z,37.7
2023-03-12T15:51:35.760Z,37.7
2023-03-12T15:52:51.950Z,37.6
2023-03-12T15:54:08.148Z,37.7
2023-03-12T15:55:24.333Z,37.7
2023-03-12T15:56:40.524Z,37.7
2023-03-12T15:57:56.733Z,37.7
2023-03-12T15:59:12.909Z,37.7
2023-03-12T16:01:45.305Z,37.7
2023-03-12T16:06:49.122Z,37.7
2023-03-12T16:09:21.502Z,37.7
2023-03-12T16:10:37.683Z,37.7
2023-03-12T16:13:10.076Z,37.8
2023-03-12T16:14:26.259Z,37.7
2023-03-12T16:18:14.841Z,37.8
2023-03-12T16:19:30.068Z,37.8
2023-03-12T16:20:46.257Z,37.8
2023-03-12T16:22:02.451Z,37.8
2023-03-12T16:23:18.656Z,37.7
2023-03-12T16:24:34.838Z,37.8
2023-03-12T16:25:51.034Z,37.8
2023-03-12T16:27:07.216Z,37.7
2023-03-12T16:28:23.416Z,37.7
2023-03-12T16:29:39.610Z,37.7
2023-03-12T16:30:55.791Z,37.7
2023-03-12T16:33:28.180Z,37.7
2023-03-12T16:34:44.382Z,37.7
2023-03-12T16:35:59.603Z,37.7
2023-03-12T16:37:15.812Z,37.7
2023-03-12T16:39:48.178Z,37.7
2023-03-12T16:42:20.566Z,37.7
2023-03-12T16:44:53.026Z,37.7
2023-03-12T16:47:25.340Z,37.7
2023-03-12T16:48:41.533Z,37.7
2023-03-12T16:49:57.721Z,37.8
2023-03-12T16:52:30.097Z,37.8
2023-03-12T16:53:45.343Z,37.8
2023-03-12T16:56:17.737Z,37.7
2023-03-12T16:57:33.925Z,37.7
2023-03-12T17:01:22.491Z,37.8
2023-03-12T17:02:38.694Z,37.8
2023-03-12T17:03:54.874Z,37.8
2023-03-12T17:05:11.066Z,37.7
2023-03-12T17:06:27.263Z,37.8
2023-03-12T17:07:43.450Z,37.8
2023-03-12T17:08:59.637Z,37.8
2023-03-12T17:10:14.884Z,37.8
2023-03-12T17:11:31.077Z,37.8
2023-03-12T17:14:03.456Z,37.8
2023-03-12T17:15:19.650Z,37.8
2023-03-12T17:16:35.844Z,37.8
2023-03-12T17:17:52.026Z,37.8
2023-03-12T17:20:24.417Z,37.8
2023-03-12T17:21:40.607Z,37.7
2023-03-12T17:22:56.787Z,37.8
2023-03-12T17:24:12.982Z,37.8
2023-03-12T17:25:29.185Z,37.8
2023-03-12T17:26:44.418Z,37.8
2023-03-12T17:28:00.620Z,37.8
2023-03-12T17:29:16.791Z,37.8
2023-03-12T17:30:32.985Z,37.8
2023-03-12T17:31:49.194Z,37.8
2023-03-12T17:33:05.368Z,37.8
2023-03-12T17:34:21.569Z,37.8
2023-03-12T17:39:26.342Z,37.8
2023-03-12T17:41:58.727Z,37.8
2023-03-12T17:44:30.142Z,37.8
2023-03-12T17:45:46.340Z,37.8
2023-03-12T17:47:02.525Z,37.8
2023-03-12T17:48:18.726Z,37.8
2023-03-12T17:49:34.919Z,37.8
2023-03-12T17:50:51.100Z,37.8
2023-03-12T17:52:07.288Z,37.8
2023-03-12T17:53:23.491Z,37.8
2023-03-12T17:54:39.686Z,37.8
2023-03-12T17:55:55.880Z,37.8
2023-03-12T17:58:28.252Z,37.9
2023-03-12T18:00:59.680Z,37.8
2023-03-12T18:02:15.873Z,37.9
2023-03-12T18:04:48.258Z,37.9
2023-03-12T18:07:20.638Z,37.8
2023-03-12T18:08:36.840Z,37.8
2023-03-12T18:09:53.019Z,37.8
2023-03-12T18:12:25.417Z,37.9
2023-03-12T18:14:57.788Z,37.8
2023-03-12T18:17:29.219Z,37.9
2023-03-12T18:20:01.601Z,37.8
2023-03-12T18:21:17.807Z,37.8
2023-03-12T18:22:33.987Z,37.8
2023-03-12T18:23:50.179Z,37.8
2023-03-12T18:25:06.367Z,37.9
2023-03-12T18:26:22.556Z,37.9
2023-03-12T18:27:38.750Z,37.9
2023-03-12T18:28:54.956Z,37.9
2023-03-12T18:30:11.138Z,37.9
2023-03-12T18:31:27.340Z,37.9
2023-03-12T18:32:42.575Z,37.9
2023-03-12T18:33:58.765Z,37.9
2023-03-12T18:36:31.139Z,37.9
2023-03-12T18:37:47.345Z,37.9
2023-03-12T18:39:03.535Z,37.9
2023-03-12T18:40:19.714Z,37.8
2023-03-12T18:41:35.913Z,37.8
2023-03-12T18:42:52.100Z,37.8
2023-03-12T18:44:08.306Z,37.8
2023-03-12T18:45:24.479Z,37.9
2023-03-12T18:46:39.755Z,37.9
2023-03-12T18:50:27.373Z,37.9
2023-03-12T18:51:43.563Z,37.9
2023-03-12T18:55:32.154Z,37.9
2023-03-12T18:58:04.538Z,37.9
2023-03-12T19:01:53.094Z,37.9
2023-03-12T19:03:09.290Z,37.9
2023-03-12T19:05:40.730Z,37.9
2023-03-12T19:09:29.292Z,37.9
2023-03-12T19:10:45.487Z,37.8
2023-03-12T19:14:34.078Z,37.9
2023-03-12T19:15:49.331Z,37.9
2023-03-12T19:17:04.567Z,37.9
2023-03-12T19:18:20.772Z,37.9
2023-03-12T19:19:36.954Z,37.9
2023-03-12T19:20:53.152Z,37.9
2023-03-12T19:23:25.587Z,37.9
2023-03-12T19:24:41.778Z,37.9
2023-03-12T19:28:30.335Z,37.9
2023-03-12T19:29:46.543Z,37.9
2023-03-12T19:31:02.724Z,37.9
2023-03-12T19:33:35.115Z,37.9
2023-03-12T19:36:06.542Z,37.9
2023-03-12T19:39:55.115Z,37.9
2023-03-12T19:41:11.316Z,37.9
2023-03-12T19:55:09.408Z,37.9
2023-03-12T19:56:24.680Z,37.9
2023-03-12T19:58:57.069Z,38
2023-03-12T20:01:29.446Z,38
2023-03-12T20:06:34.219Z,38
2023-03-12T20:11:38.974Z,38
2023-03-12T20:14:10.416Z,38
2023-03-12T20:17:58.972Z,38
2023-03-12T20:25:36.120Z,38
2023-03-12T20:33:13.283Z,38.1
2023-03-12T20:37:00.898Z,38.1
2023-03-12T20:40:49.478Z,38.1
2023-03-12T20:52:15.205Z,38.1
2023-03-12T20:56:02.828Z,38.1
2023-03-12T21:03:39.973Z,38.1
2023-03-12T21:11:17.165Z,38.1
2023-03-12T21:15:04.743Z,38.1
2023-03-12T21:18:53.311Z,38.1
2023-03-12T21:22:41.904Z,38.1
2023-03-12T21:25:14.267Z,38.1
2023-03-12T21:29:02.850Z,38.1
2023-03-12T21:30:18.134Z,38.2
2023-03-12T21:31:34.292Z,38.2
2023-03-12T21:32:50.477Z,38.2
2023-03-12T21:34:06.665Z,38.2
2023-03-12T21:35:22.849Z,38.2
2023-03-12T21:37:55.236Z,38.2
2023-03-12T21:39:11.440Z,38.2
2023-03-12T21:46:48.576Z,38.2
2023-03-12T21:48:03.831Z,38.2
2023-03-12T21:49:20.012Z,38.2
2023-03-12T21:50:36.199Z,38.2
2023-03-12T21:53:08.584Z,38.2
2023-03-12T21:54:24.775Z,38.2
2023-03-12T21:55:40.964Z,38.2
2023-03-12T21:56:57.156Z,38.2
2023-03-12T21:58:13.345Z,38.2
2023-03-12T22:00:45.731Z,38.2
2023-03-12T22:08:22.889Z,38.3
2023-03-12T22:12:10.510Z,38.3
2023-03-12T22:14:42.884Z,38.3
2023-03-12T22:18:31.470Z,38.2
2023-03-12T22:19:47.666Z,38.2
2023-03-12T22:27:24.804Z,38.2
2023-03-12T22:28:40.060Z,38.2
2023-03-12T22:29:56.231Z,38.3
2023-03-12T22:31:12.424Z,38.3
2023-03-12T22:32:28.625Z,38.3
2023-03-12T22:33:44.823Z,38.3
2023-03-12T22:35:01.010Z,38.3
2023-03-12T22:36:17.188Z,38.3
2023-03-12T22:37:33.389Z,38.3
2023-03-12T22:38:49.579Z,38.3
2023-03-12T22:40:05.782Z,38.3
2023-03-12T22:41:21.973Z,38.3
2023-03-12T22:43:54.348Z,38.3
2023-03-12T22:45:09.582Z,38.3
2023-03-12T22:46:25.768Z,38.3
2023-03-12T22:47:41.974Z,38.3
2023-03-12T22:50:14.351Z,38.2
2023-03-12T22:51:30.535Z,38.3
2023-03-12T22:52:46.745Z,38.3
2023-03-12T22:54:02.925Z,38.3
2023-03-12T22:55:19.118Z,38.3
2023-03-12T22:57:51.509Z,38.3
2023-03-12T22:59:07.692Z,38.3
2023-03-12T23:00:23.877Z,38.3
2023-03-12T23:02:55.323Z,38.2
2023-03-12T23:04:11.499Z,38.3
2023-03-12T23:05:27.694Z,38.3
2023-03-12T23:06:43.882Z,38.3
2023-03-12T23:09:16.278Z,38.2
2023-03-12T23:10:32.469Z,38.3
2023-03-12T23:11:48.648Z,38.3
2023-03-12T23:13:04.846Z,38.3
2023-03-12T23:15:37.241Z,38.3
2023-03-12T23:16:53.420Z,38.3
2023-03-12T23:18:08.656Z,38.3
2023-03-12T23:19:24.867Z,38.3
2023-03-12T23:21:57.244Z,38.2
2023-03-12T23:23:13.433Z,38.3
2023-03-12T23:24:29.626Z,38.2
2023-03-12T23:25:45.812Z,38.3
2023-03-12T23:27:02.010Z,38.3
2023-03-12T23:28:18.203Z,38.3
2023-03-12T23:29:34.389Z,38.3
2023-03-12T23:30:50.587Z,38.3
2023-03-12T23:32:06.767Z,38.3
2023-03-12T23:35:55.345Z,38.3
2023-03-12T23:43:31.593Z,38.3
2023-03-12T23:47:20.129Z,38.3
2023-03-12T23:51:08.692Z,38.3
